createdAt,value
2023-01-10T04:45:25.655Z,7.40
2023-01-10T04:47:52.740Z,7.30
2023-01-10T04:50:19.669Z,7.40
2023-01-10T04:52:46.613Z,7.40
2023-01-10T04:55:13.634Z,7.40
2023-01-10T04:57:40.542Z,7.30
2023-01-10T05:00:08.258Z,7.30
2023-01-10T05:02:35.276Z,7.30
2023-01-10T05:05:02.264Z,7.30
2023-01-10T05:07:29.149Z,7.30
2023-01-10T05:09:56.048Z,7.30
2023-01-10T05:12:22.950Z,7.30
2023-01-10T05:14:49.935Z,7.30
2023-01-10T05:17:16.850Z,7.30
2023-01-10T05:19:43.977Z,7.30
2023-01-10T05:22:10.916Z,7.30
2023-01-10T05:24:37.806Z,7.30
2023-01-10T05:27:04.685Z,7.20
2023-01-10T05:29:32.673Z,7.10
2023-01-10T05:31:59.886Z,7.10
2023-01-10T05:34:27.042Z,7.20
2023-01-10T05:36:53.977Z,7.20
2023-01-10T05:39:21.370Z,7.20
2023-01-10T05:41:48.259Z,7.10
2023-01-10T05:44:15.168Z,7.10
2023-01-10T05:46:42.076Z,7.20
2023-01-10T05:49:09.131Z,7.20
2023-01-10T05:51:36.420Z,7.30
2023-01-10T05:54:03.357Z,7.30
2023-01-10T05:56:30.457Z,7.10
2023-01-10T05:59:07.897Z,7.10
2023-01-10T06:01:36.758Z,7.10
2023-01-10T06:04:03.947Z,7.10
2023-01-10T06:06:30.898Z,7.20
2023-01-10T06:09:01.404Z,7.20
2023-01-10T06:11:31.332Z,7.10
2023-01-10T06:13:58.378Z,7.20
2023-01-10T06:16:25.451Z,7.20
2023-01-10T06:18:52.446Z,7.20
2023-01-10T06:21:19.463Z,7.30
2023-01-10T06:23:46.613Z,7.30
2023-01-10T06:26:13.531Z,7.30
2023-01-10T06:28:43.375Z,7.30
2023-01-10T06:31:10.477Z,7.30
2023-01-10T06:33:38.881Z,7.20
2023-01-10T06:36:05.959Z,7.20
2023-01-10T06:38:32.892Z,7.20
2023-01-10T06:41:12.729Z,7.20
2023-01-10T06:43:43.302Z,7.20
2023-01-10T06:46:10.320Z,7.20
2023-01-10T06:48:37.466Z,7.20
2023-01-10T06:51:04.977Z,7.20
2023-01-10T06:53:32.128Z,7.10
2023-01-10T06:55:59.080Z,7.10
2023-01-10T06:58:26.069Z,7.10
2023-01-10T07:00:53.094Z,7.10
2023-01-10T07:03:20.264Z,7.00
2023-01-10T07:05:47.216Z,7.10
2023-01-10T07:08:14.101Z,7.20
2023-01-10T07:10:41.811Z,7.20
2023-01-10T07:13:09.008Z,7.30
2023-01-10T07:15:35.993Z,7.10
2023-01-10T07:18:02.976Z,7.10
2023-01-10T07:20:30.059Z,6.90
2023-01-10T07:22:57.973Z,6.90
2023-01-10T07:25:25.702Z,6.90
2023-01-10T07:27:55.274Z,6.90
2023-01-10T07:30:25.066Z,6.80
2023-01-10T07:32:53.037Z,6.80
2023-01-10T07:35:19.906Z,6.80
2023-01-10T07:37:46.777Z,6.90
2023-01-10T07:40:13.770Z,7.00
2023-01-10T07:42:40.804Z,7.00
2023-01-10T07:45:08.713Z,7.00
2023-01-10T07:47:35.739Z,6.90
2023-01-10T07:50:02.673Z,6.90
2023-01-10T07:52:29.617Z,6.80
2023-01-10T07:54:56.696Z,6.70
2023-01-10T07:57:23.678Z,6.60
2023-01-10T07:59:50.617Z,6.60
2023-01-10T08:02:17.671Z,6.70
2023-01-10T08:04:44.742Z,6.70
2023-01-10T08:07:11.646Z,6.60
2023-01-10T08:09:38.600Z,6.40
2023-01-10T08:12:05.566Z,6.50
2023-01-10T08:14:32.609Z,6.60
2023-01-10T08:17:00.448Z,6.80
2023-01-10T08:19:27.376Z,6.80
2023-01-10T08:21:55.162Z,6.90
2023-01-10T08:24:22.071Z,7.00
2023-01-10T08:26:49.100Z,7.10
2023-01-10T08:29:16.160Z,7.10
2023-01-10T08:31:43.090Z,7.20
2023-01-10T08:34:10.095Z,7.20
2023-01-10T08:36:37.023Z,7.20
2023-01-10T08:39:04.077Z,7.10
2023-01-10T08:41:31.352Z,7.00
2023-01-10T08:43:58.229Z,6.80
2023-01-10T08:46:25.276Z,6.70
2023-01-10T08:48:52.439Z,6.80
2023-01-10T08:51:19.373Z,6.70
2023-01-10T08:53:46.327Z,6.60
2023-01-10T08:56:13.237Z,6.70
2023-01-10T08:58:40.162Z,6.90
2023-01-10T09:01:08.036Z,6.90
2023-01-10T09:03:35.145Z,7.00
2023-01-10T09:06:02.172Z,7.00
2023-01-10T09:08:29.114Z,7.00
2023-01-10T09:10:58.311Z,7.00
2023-01-10T09:13:25.300Z,7.00
2023-01-10T09:15:53.017Z,6.90
2023-01-10T09:18:21.381Z,6.80
2023-01-10T09:20:49.260Z,6.90
2023-01-10T09:23:20.003Z,7.00
2023-01-10T09:25:47.543Z,7.00
2023-01-10T09:28:14.856Z,6.90
2023-01-10T09:30:41.848Z,6.80
2023-01-10T09:33:08.833Z,6.60
2023-01-10T09:35:36.835Z,6.50
2023-01-10T09:38:06.265Z,6.60
2023-01-10T09:40:36.071Z,6.60
2023-01-10T09:43:03.008Z,6.60
2023-01-10T09:45:38.601Z,6.60
2023-01-10T09:48:08.080Z,6.70
2023-01-10T09:50:46.383Z,6.70
2023-01-10T09:53:18.332Z,6.80
2023-01-10T09:55:46.000Z,6.90
2023-01-10T09:58:17.866Z,6.90
2023-01-10T10:00:47.942Z,7.10
2023-01-10T10:03:19.203Z,7.20
2023-01-10T10:05:46.265Z,7.20
2023-01-10T10:08:16.468Z,7.20
2023-01-10T10:11:03.671Z,7.10
2023-01-10T10:13:45.285Z,7.20
2023-01-10T10:16:30.865Z,7.10
2023-01-10T10:19:03.707Z,7.10
2023-01-10T10:21:36.426Z,7.00
2023-01-10T10:24:14.255Z,7.10
2023-01-10T10:26:47.110Z,7.10
2023-01-10T10:29:22.966Z,7.10
2023-01-10T10:32:08.230Z,7.10
2023-01-10T10:34:37.348Z,7.30
2023-01-10T10:37:08.870Z,7.30
2023-01-10T10:39:42.751Z,7.40
2023-01-10T10:42:12.089Z,7.60
2023-01-10T10:44:45.092Z,7.70
2023-01-10T10:47:16.637Z,7.70
2023-01-10T10:49:46.753Z,7.80
2023-01-10T10:52:34.725Z,7.80
2023-01-10T10:55:02.813Z,7.90
2023-01-10T10:57:30.977Z,8.00
2023-01-10T10:59:59.973Z,8.00
2023-01-10T11:02:30.785Z,7.80
2023-01-10T11:04:59.735Z,7.80
2023-01-10T11:07:29.516Z,7.80
2023-01-10T11:10:09.231Z,7.90
2023-01-10T11:12:38.341Z,7.80
2023-01-10T11:15:05.539Z,7.60
2023-01-10T11:17:34.444Z,7.60
2023-01-10T11:20:05.296Z,7.60
2023-01-10T11:22:38.681Z,7.50
2023-01-10T11:25:06.057Z,7.60
2023-01-10T11:27:36.310Z,7.60
2023-01-10T11:30:06.763Z,7.70
2023-01-10T11:32:33.726Z,7.70
2023-01-10T11:35:06.930Z,7.80
2023-01-10T11:37:35.233Z,7.90
2023-01-10T11:40:08.113Z,7.90
2023-01-10T11:42:35.082Z,7.90
2023-01-10T11:45:16.901Z,7.80
2023-01-10T11:47:46.618Z,7.70
2023-01-10T11:50:19.849Z,7.70
2023-01-10T11:52:48.101Z,7.60
2023-01-10T11:55:19.329Z,7.70
2023-01-10T11:57:46.630Z,7.70
2023-01-10T12:00:14.005Z,7.70
2023-01-10T12:02:42.203Z,7.60
2023-01-10T12:05:11.265Z,7.60
2023-01-10T12:07:57.501Z,7.50
2023-01-10T12:10:26.391Z,7.50
2023-01-10T12:12:58.167Z,7.40
2023-01-10T12:15:27.159Z,7.50
2023-01-10T12:17:56.900Z,7.40
2023-01-10T12:20:35.248Z,7.30
2023-01-10T12:23:06.978Z,7.30
2023-01-10T12:25:38.386Z,7.50
2023-01-10T12:28:16.340Z,7.60
2023-01-10T12:30:44.563Z,7.90
2023-01-10T12:33:13.677Z,8.10
2023-01-10T12:35:48.066Z,8.30
2023-01-10T12:38:46.367Z,8.30
2023-01-10T12:41:35.881Z,8.10
2023-01-10T12:44:11.180Z,8.30
2023-01-10T12:47:08.723Z,8.30
2023-01-10T12:49:58.789Z,8.10
2023-01-10T12:52:45.383Z,8.00
2023-01-10T12:55:14.353Z,7.90
2023-01-10T12:57:43.470Z,7.80
2023-01-10T13:00:18.906Z,7.80
2023-01-10T13:02:47.406Z,7.80
2023-01-10T13:05:22.339Z,7.90
2023-01-10T13:07:50.345Z,8.00
2023-01-10T13:10:18.601Z,8.30
2023-01-10T13:12:50.194Z,8.00
2023-01-10T13:15:23.172Z,8.10
2023-01-10T13:17:53.314Z,8.10
2023-01-10T13:20:23.436Z,8.30
2023-01-10T13:22:52.411Z,8.00
2023-01-10T13:25:19.370Z,8.00
2023-01-10T13:27:46.436Z,8.00
2023-01-10T13:30:26.922Z,8.10
2023-01-10T13:32:58.992Z,8.00
2023-01-10T13:35:28.541Z,8.30
2023-01-10T13:37:56.169Z,7.90
2023-01-10T13:40:27.299Z,7.90
2023-01-10T13:43:19.309Z,7.90
2023-01-10T13:45:46.388Z,8.00
2023-01-10T13:48:24.339Z,8.00
2023-01-10T13:50:52.725Z,8.30
2023-01-10T13:53:19.771Z,8.30
2023-01-10T13:55:49.972Z,8.50
2023-01-10T13:58:16.915Z,8.60
2023-01-10T14:01:14.034Z,8.40
2023-01-10T14:03:43.971Z,8.40
2023-01-10T14:06:29.365Z,8.50
2023-01-10T14:08:57.844Z,8.40
2023-01-10T14:11:35.522Z,8.50
2023-01-10T14:14:02.998Z,8.50
2023-01-10T14:16:29.979Z,8.50
2023-01-10T14:18:57.276Z,8.50
2023-01-10T14:21:25.580Z,8.60
2023-01-10T14:23:53.367Z,8.70
2023-01-10T14:26:23.405Z,8.60
2023-01-10T14:28:50.587Z,8.50
2023-01-10T14:31:22.152Z,8.70
2023-01-10T14:33:53.275Z,8.60
2023-01-10T14:36:32.415Z,8.40
2023-01-10T14:39:02.068Z,8.90
2023-01-10T14:41:28.994Z,8.90
2023-01-10T14:44:06.840Z,8.90
2023-01-10T14:46:38.647Z,8.70
2023-01-10T14:49:19.175Z,8.80
2023-01-10T14:51:50.321Z,9.00
2023-01-10T14:54:21.894Z,9.10
2023-01-10T14:56:50.350Z,8.80
2023-01-10T14:59:27.928Z,8.90
2023-01-10T15:02:02.617Z,8.90
2023-01-10T15:04:30.809Z,8.90
2023-01-10T15:07:00.142Z,9.10
2023-01-10T15:09:27.846Z,8.90
2023-01-10T15:11:59.933Z,9.00
2023-01-10T15:14:28.193Z,8.80
2023-01-10T15:16:57.133Z,9.00
2023-01-10T15:19:24.983Z,8.80
2023-01-10T15:21:52.018Z,8.80
2023-01-10T15:24:28.089Z,9.10
2023-01-10T15:26:57.530Z,8.70
2023-01-10T15:29:24.930Z,8.70
2023-01-10T15:31:53.435Z,8.70
2023-01-10T15:34:21.495Z,8.70
2023-01-10T15:36:50.872Z,8.80
2023-01-10T15:39:29.062Z,8.60
2023-01-10T15:41:57.579Z,8.60
2023-01-10T15:44:34.345Z,8.80
2023-01-10T15:47:01.352Z,8.60
2023-01-10T15:49:29.492Z,8.80
2023-01-10T15:52:01.882Z,8.70
2023-01-10T15:54:30.055Z,8.70
2023-01-10T15:57:00.142Z,8.70
2023-01-10T15:59:28.115Z,8.50
2023-01-10T16:01:55.413Z,8.50
2023-01-10T16:04:23.049Z,8.40
2023-01-10T16:06:51.674Z,8.40
2023-01-10T16:09:22.526Z,8.30
2023-01-10T16:12:12.296Z,8.30
2023-01-10T16:14:39.289Z,8.40
2023-01-10T16:17:07.268Z,8.70
2023-01-10T16:19:34.816Z,8.50
2023-01-10T16:22:02.037Z,8.30
2023-01-10T16:24:33.849Z,8.30
2023-01-10T16:27:03.204Z,8.30
2023-01-10T16:29:30.220Z,8.30
2023-01-10T16:31:57.347Z,8.50
2023-01-10T16:34:25.964Z,8.50
2023-01-10T16:36:53.363Z,8.50
2023-01-10T16:39:21.879Z,8.20
2023-01-10T16:42:07.694Z,8.40
2023-01-10T16:44:35.082Z,8.40
2023-01-10T16:47:03.825Z,8.10
2023-01-10T16:50:05.244Z,8.30
2023-01-10T16:52:32.267Z,8.10
2023-01-10T16:54:59.258Z,8.30
2023-01-10T16:57:26.692Z,7.90
2023-01-10T16:59:53.695Z,7.90
2023-01-10T17:02:21.811Z,7.90
2023-01-10T17:04:48.918Z,8.00
2023-01-10T17:07:15.960Z,8.00
2023-01-10T17:09:42.952Z,8.00
2023-01-10T17:12:13.221Z,8.10
2023-01-10T17:14:40.188Z,8.00
2023-01-10T17:17:07.121Z,8.20
2023-01-10T17:19:34.324Z,7.80
2023-01-10T17:22:01.346Z,8.10
2023-01-10T17:24:29.930Z,8.30
2023-01-10T17:26:56.992Z,8.30
2023-01-10T17:29:23.979Z,8.30
2023-01-10T17:31:51.057Z,8.10
2023-01-10T17:34:18.141Z,8.30
2023-01-10T17:36:47.117Z,8.10
2023-01-10T17:39:14.085Z,8.30
2023-01-10T17:41:41.165Z,8.40
2023-01-10T17:44:08.437Z,8.10
2023-01-10T17:46:35.656Z,8.10
2023-01-10T17:49:02.960Z,8.30
2023-01-10T17:51:30.620Z,8.10
2023-01-10T17:53:58.480Z,7.90
2023-01-10T17:56:29.996Z,8.20
2023-01-10T17:58:58.979Z,8.50
2023-01-10T18:01:28.489Z,8.20
2023-01-10T18:03:55.822Z,8.20
2023-01-10T18:06:24.673Z,8.10
2023-01-10T18:08:53.401Z,8.10
2023-01-10T18:14:36.050Z,7.80
2023-01-10T18:17:10.048Z,8.00
2023-01-10T18:19:37.106Z,8.00
2023-01-10T18:22:27.349Z,8.00
2023-01-10T18:24:54.932Z,8.00
2023-01-10T18:27:22.606Z,7.90
2023-01-10T18:29:50.369Z,7.90
2023-01-10T18:32:18.015Z,7.90
2023-01-10T18:34:47.046Z,7.90
2023-01-10T18:37:14.527Z,7.90
2023-01-10T18:39:43.553Z,7.90
2023-01-10T18:42:13.586Z,7.90
2023-01-10T18:44:41.272Z,7.90
2023-01-10T18:47:08.428Z,7.90
2023-01-10T18:49:35.435Z,7.90
2023-01-10T18:52:02.327Z,7.90
2023-01-10T18:54:29.269Z,8.00
2023-01-10T18:56:56.287Z,8.00
2023-01-10T18:59:23.532Z,8.00
2023-01-10T19:01:50.612Z,8.00
2023-01-10T19:04:18.693Z,8.00
2023-01-10T19:06:46.060Z,7.90
2023-01-10T19:09:13.032Z,8.00
2023-01-10T19:11:39.965Z,7.90
2023-01-10T19:14:06.895Z,7.90
2023-01-10T19:16:33.953Z,7.90
2023-01-10T19:19:02.802Z,7.90
2023-01-10T19:21:30.586Z,8.00
2023-01-10T19:24:00.296Z,8.00
2023-01-10T19:26:27.466Z,8.00
2023-01-10T19:28:54.436Z,8.00
2023-01-10T19:31:25.690Z,8.00
2023-01-10T19:33:53.266Z,7.90
2023-01-10T19:36:21.303Z,7.90
2023-01-10T19:38:48.569Z,7.90
2023-01-10T19:41:15.924Z,7.90
2023-01-10T19:43:42.854Z,8.00
2023-01-10T19:46:11.105Z,8.00
2023-01-10T19:48:38.571Z,8.00
2023-01-10T19:51:09.441Z,8.00
2023-01-10T19:53:37.076Z,8.10
2023-01-10T19:56:07.309Z,8.10
2023-01-10T19:58:34.702Z,8.10
2023-01-10T20:01:15.321Z,8.20
2023-01-10T20:03:42.731Z,8.20
2023-01-10T20:06:10.640Z,8.20
2023-01-10T20:08:37.605Z,8.20
2023-01-10T20:11:05.546Z,8.20
2023-01-10T20:13:33.609Z,8.30
2023-01-10T20:16:00.702Z,8.30
2023-01-10T20:18:27.845Z,8.30
2023-01-10T20:20:54.883Z,8.30
2023-01-10T20:23:23.396Z,8.30
2023-01-10T20:25:57.846Z,8.40
2023-01-10T20:28:26.142Z,8.40
2023-01-10T20:30:53.578Z,8.40
2023-01-10T20:33:21.952Z,8.40
2023-01-10T20:35:58.892Z,8.50
2023-01-10T20:38:26.573Z,8.50
2023-01-10T20:40:57.554Z,8.50
2023-01-10T20:43:24.752Z,8.40
2023-01-10T20:45:51.722Z,8.40
2023-01-10T20:48:18.727Z,8.40
2023-01-10T20:50:45.823Z,8.40
2023-01-10T20:53:13.324Z,8.40
2023-01-10T20:55:40.459Z,8.40
2023-01-10T20:58:07.578Z,8.50
2023-01-10T21:00:34.741Z,8.50
2023-01-10T21:03:01.837Z,8.50
2023-01-10T21:05:28.828Z,8.70
2023-01-10T21:07:55.755Z,8.60
2023-01-10T21:10:22.660Z,8.60
2023-01-10T21:12:49.595Z,8.60
2023-01-10T21:15:16.552Z,8.70
2023-01-10T21:17:43.581Z,8.90
2023-01-10T21:20:11.492Z,8.70
2023-01-10T21:22:38.421Z,8.70
2023-01-10T21:25:05.673Z,8.70
2023-01-10T21:27:32.689Z,8.70
2023-01-10T21:30:00.632Z,8.70
2023-01-10T21:32:27.607Z,8.60
2023-01-10T21:34:54.564Z,8.60
2023-01-10T21:37:21.537Z,8.70
2023-01-10T21:39:48.547Z,8.70
2023-01-10T21:42:34.063Z,8.70
2023-01-10T21:45:01.335Z,8.70
2023-01-10T21:47:28.475Z,8.90
2023-01-10T21:49:55.498Z,8.70
2023-01-10T21:52:22.425Z,8.80
2023-01-10T21:54:49.328Z,8.70
2023-01-10T21:57:21.697Z,8.70
2023-01-10T21:59:49.462Z,8.70
2023-01-10T22:02:16.905Z,8.70
2023-01-10T22:04:47.219Z,8.70
2023-01-10T22:07:14.373Z,8.80
2023-01-10T22:09:41.335Z,8.80
2023-01-10T22:12:08.722Z,8.80
2023-01-10T22:14:36.054Z,8.80
2023-01-10T22:17:03.857Z,8.90
2023-01-10T22:19:30.856Z,8.80
2023-01-10T22:21:57.804Z,8.80
2023-01-10T22:24:24.745Z,8.80
2023-01-10T22:26:53.872Z,8.90
2023-01-10T22:29:21.495Z,8.80
2023-01-10T22:31:48.940Z,8.80
2023-01-10T22:34:16.335Z,8.90
2023-01-10T22:36:43.408Z,8.90
2023-01-10T22:39:11.127Z,8.70
2023-01-10T22:41:38.967Z,8.80
2023-01-10T22:44:06.342Z,8.90
2023-01-10T22:46:33.681Z,8.80
2023-01-10T22:49:01.235Z,8.90
2023-01-10T22:51:28.671Z,8.90
2023-01-10T22:53:56.578Z,9.00
2023-01-10T22:56:26.263Z,9.00
2023-01-10T22:58:53.356Z,9.00
2023-01-10T23:01:21.535Z,9.00
2023-01-10T23:03:48.728Z,9.00
2023-01-10T23:06:16.580Z,9.00
2023-01-10T23:08:44.082Z,9.00
2023-01-10T23:11:12.464Z,9.00
2023-01-10T23:13:39.499Z,9.00
2023-01-10T23:16:08.507Z,8.70
2023-01-10T23:18:35.565Z,9.00
2023-01-10T23:21:02.617Z,9.00
2023-01-10T23:23:29.629Z,9.10
2023-01-10T23:26:03.803Z,9.10
2023-01-10T23:28:34.916Z,9.10
2023-01-10T23:31:02.134Z,9.10
2023-01-10T23:33:29.302Z,9.10
2023-01-10T23:35:56.341Z,9.20
2023-01-10T23:38:23.341Z,9.20
2023-01-10T23:40:50.884Z,9.20
2023-01-10T23:43:17.889Z,9.20
2023-01-10T23:45:45.308Z,9.20
2023-01-10T23:48:12.800Z,9.20
2023-01-10T23:50:39.803Z,9.20
2023-01-10T23:53:07.045Z,9.20
2023-01-10T23:55:34.386Z,9.20
2023-01-10T23:58:01.324Z,9.20
